Ivs Kestrel — 9V2398 — position and weather

sailwx.info

Track history (hours):
 
Tides and Currents Weather Stations Pressure Air Temp Water Temp Dewpoint Dewpoint Depression Visibility Wind Speed Wind Dir Waves Ship Positions

Ivs Kestrel

Last reported at 2017-Dec-08 04:55 UTC. Time now 2017-Dec-14 15:13 UTC.
Position N 01°15' E 104°04'.

Length 171 m; draft 9.3 m.

Type: Ship. MMSI: 564634000.

Date/timePositionNaut miles runAvg speedWind from/ knotsBaromVisibWave heightAir tempDewpointWater temp
2017-Dec-08 04:55N 01°15' E 104°04'511.2
2017-Dec-08 04:29N 01°14' E 103°59'4 8.0
2017-Dec-08 04:00N 01°16' E 103°56'2 3.4
2017-Dec-08 03:30N 01°16' E 103°54'0 0.0
2017-Dec-08 03:00N 01°16' E 103°54'0 0.0
2017-Dec-08 02:24N 01°16' E 103°54'0 0.0
2017-Dec-08 01:57N 01°16' E 103°54'0 0.0
2017-Dec-08 01:30N 01°16' E 103°54'0 0.0
2017-Dec-08 01:00N 01°16' E 103°54'0 0.0
2017-Dec-08 00:30N 01°16' E 103°54'0 0.0
2017-Dec-07 23:48N 01°16' E 103°54'0 0.0
2017-Dec-07 23:30N 01°16' E 103°54'0 0.0
2017-Dec-07 23:00N 01°16' E 103°54'0 0.0
2017-Dec-07 22:30N 01°16' E 103°54'0 0.0
2017-Dec-07 18:12N 01°16' E 103°54'0 0.0
2017-Dec-07 17:45N 01°16' E 103°54'0 0.0
2017-Dec-07 17:21N 01°16' E 103°54'0 0.1
2017-Dec-07 16:55N 01°16' E 103°54'1 3.2
2017-Dec-07 16:30N 01°15' E 103°53'2 4.3
2017-Dec-07 16:00N 01°13' E 103°52'1 1.9
2017-Dec-07 15:30N 01°13' E 103°53'2 3.3
2017-Dec-07 15:00N 01°12' E 103°53'2 4.8
2017-Dec-07 14:30N 01°11' E 103°51'3 5.9
2017-Dec-07 14:00N 01°10' E 103°48'612.4
2017-Dec-07 13:30N 01°05' E 103°44'712.6
2017-Dec-07 12:59N 01°04' E 103°37'612.6
2017-Dec-07 12:30N 01°07' E 103°32'712.9
2017-Dec-07 11:58N 01°10' E 103°26'612.7
2017-Dec-07 11:30N 01°14' E 103°21'  
Track history (hours):
 
Tides and Currents Weather Stations Pressure Air Temp Water Temp Dewpoint Dewpoint Depression Visibility Wind Speed Wind Dir Waves Ship Positions

Ivs Kestrel

Last reported at 2017-Dec-08 04:55 UTC. Time now 2017-Dec-14 15:13 UTC.
Position N 01°15' E 104°04'.

Length 171 m; draft 9.3 m.

Type: Ship. MMSI: 564634000.

Date/timePositionNaut miles runAvg speedWind from/ knotsBaromVisibWave heightAir tempDewpointWater temp
2017-Dec-08 04:55N 01°15' E 104°04'511.2
2017-Dec-08 04:29N 01°14' E 103°59'4 8.0
2017-Dec-08 04:00N 01°16' E 103°56'2 3.4
2017-Dec-08 03:30N 01°16' E 103°54'0 0.0
2017-Dec-08 03:00N 01°16' E 103°54'0 0.0
2017-Dec-08 02:24N 01°16' E 103°54'0 0.0
2017-Dec-08 01:57N 01°16' E 103°54'0 0.0
2017-Dec-08 01:30N 01°16' E 103°54'0 0.0
2017-Dec-08 01:00N 01°16' E 103°54'0 0.0
2017-Dec-08 00:30N 01°16' E 103°54'0 0.0
2017-Dec-07 23:48N 01°16' E 103°54'0 0.0
2017-Dec-07 23:30N 01°16' E 103°54'0 0.0
2017-Dec-07 23:00N 01°16' E 103°54'0 0.0
2017-Dec-07 22:30N 01°16' E 103°54'0 0.0
2017-Dec-07 18:12N 01°16' E 103°54'0 0.0
2017-Dec-07 17:45N 01°16' E 103°54'0 0.0
2017-Dec-07 17:21N 01°16' E 103°54'0 0.1
2017-Dec-07 16:55N 01°16' E 103°54'1 3.2
2017-Dec-07 16:30N 01°15' E 103°53'2 4.3
2017-Dec-07 16:00N 01°13' E 103°52'1 1.9
2017-Dec-07 15:30N 01°13' E 103°53'2 3.3
2017-Dec-07 15:00N 01°12' E 103°53'2 4.8
2017-Dec-07 14:30N 01°11' E 103°51'3 5.9
2017-Dec-07 14:00N 01°10' E 103°48'612.4
2017-Dec-07 13:30N 01°05' E 103°44'712.6
2017-Dec-07 12:59N 01°04' E 103°37'612.6
2017-Dec-07 12:30N 01°07' E 103°32'712.9
2017-Dec-07 11:58N 01°10' E 103°26'612.7
2017-Dec-07 11:30N 01°14' E 103°21'  

Dump ship's entire track history